Time;durP1;ratioP1;P1;durP2;ratioP2;P2;SDS_P1;SDS_P2;PMS_P1;PMS_P2;Temp;Humidity;BMP_temperature;BMP_pressure;BME280_temperature;BME280_humidity;BME280_pressure;Samples;Min_cycle;Max_cycle;Signal;HPM_P1;HPM_P2
2023/08/03 00:02:22;;;;;;;15.00;3.13;;;;;;;16.36;100.00;99168.88;5028824;28;20033;-76
2023/08/03 00:05:08;;;;;;;21.77;3.70;;;;;;;16.37;100.00;99168.47;5048445;28;20085;-76
2023/08/03 00:07:54;;;;;;;19.63;2.75;;;;;;;16.35;100.00;99175.63;5040409;28;20047;-76
2023/08/03 00:10:39;;;;;;;13.93;3.20;;;;;;;16.39;100.00;99176.53;5051315;28;20485;-76
2023/08/03 00:13:25;;;;;;;13.60;3.28;;;;;;;16.38;100.00;99180.50;5055681;28;20092;-76
2023/08/03 00:16:11;;;;;;;14.85;2.92;;;;;;;16.35;100.00;99184.84;5058360;28;20052;-75
2023/08/03 00:18:57;;;;;;;14.77;2.63;;;;;;;16.40;100.00;99189.34;5080593;28;20100;-76
2023/08/03 00:21:43;;;;;;;14.10;3.10;;;;;;;16.39;100.00;99182.13;5075749;28;20170;-76
2023/08/03 00:24:28;;;;;;;15.77;2.92;;;;;;;16.37;100.00;99190.91;5062337;28;20032;-76
2023/08/03 00:27:14;;;;;;;12.68;2.85;;;;;;;16.39;100.00;99190.53;5059067;28;20538;-75
2023/08/03 00:30:01;;;;;;;16.17;2.88;;;;;;;16.38;100.00;99195.34;5054540;28;20041;-75
2023/08/03 00:32:47;;;;;;;15.25;2.88;;;;;;;16.38;100.00;99200.09;5071497;28;20066;-75
2023/08/03 00:35:32;;;;;;;11.98;2.60;;;;;;;16.37;100.00;99201.28;5079649;28;20042;-76
2023/08/03 00:38:18;;;;;;;14.77;2.67;;;;;;;16.39;100.00;99204.56;5068851;28;20479;-75
2023/08/03 00:41:04;;;;;;;12.40;2.75;;;;;;;16.39;100.00;99196.16;5066226;28;20127;-75
2023/08/03 00:43:50;;;;;;;15.43;2.80;;;;;;;16.40;100.00;99197.75;5062972;28;20143;-75
2023/08/03 00:46:36;;;;;;;9.30;2.67;;;;;;;16.40;100.00;99208.97;5072125;28;20047;-75
2023/08/03 00:49:27;;;;;;;13.45;2.03;;;;;;;16.39;100.00;99207.34;5066598;28;20071;-76
2023/08/03 00:52:13;;;;;;;14.85;2.58;;;;;;;16.41;100.00;99213.38;5064640;28;20084;-76
2023/08/03 00:54:59;;;;;;;11.15;2.08;;;;;;;16.38;100.00;99209.34;5047624;28;20042;-76
2023/08/03 00:57:44;;;;;;;10.80;2.40;;;;;;;16.39;100.00;99212.97;5057023;28;20536;-76
2023/08/03 01:00:30;;;;;;;10.27;2.10;;;;;;;16.40;100.00;99211.78;5055626;28;20032;-76
2023/08/03 01:03:16;;;;;;;11.98;2.65;;;;;;;16.37;100.00;99216.09;5050113;28;20066;-76
2023/08/03 01:06:02;;;;;;;10.50;2.47;;;;;;;16.37;100.00;99218.91;5073402;28;20043;-76
2023/08/03 01:08:48;;;;;;;9.68;2.13;;;;;;;16.37;100.00;99226.50;5055336;28;20159;-76
2023/08/03 01:11:34;;;;;;;12.55;2.45;;;;;;;16.36;100.00;99233.31;5092469;28;20035;-76
2023/08/03 01:14:19;;;;;;;8.85;2.20;;;;;;;16.35;100.00;99231.66;5038365;28;20029;-76
2023/08/03 01:17:05;;;;;;;10.70;2.05;;;;;;;16.36;100.00;99236.09;5089694;28;20040;-76
2023/08/03 01:19:51;;;;;;;10.07;1.70;;;;;;;16.36;100.00;99230.50;5067642;28;20028;-76
2023/08/03 01:22:42;;;;;;;10.98;2.15;;;;;;;16.37;100.00;99229.31;5075441;28;20032;-76
2023/08/03 01:25:28;;;;;;;7.75;2.08;;;;;;;16.37;100.00;99235.72;5078267;28;20031;-76
2023/08/03 01:28:14;;;;;;;10.07;1.90;;;;;;;16.34;100.00;99232.84;5091472;28;20039;-75
2023/08/03 01:31:00;;;;;;;8.90;1.63;;;;;;;16.33;100.00;99239.63;5077978;28;20031;-75
2023/08/03 01:33:45;;;;;;;9.43;1.67;;;;;;;16.34;100.00;99241.25;5075149;28;20026;-76
2023/08/03 01:36:31;;;;;;;8.85;2.00;;;;;;;16.30;100.00;99236.38;5077608;28;20027;-76
2023/08/03 01:39:17;;;;;;;10.32;2.03;;;;;;;16.31;100.00;99251.19;5075298;28;20062;-75
2023/08/03 01:42:03;;;;;;;12.65;2.65;;;;;;;16.30;100.00;99241.97;5090734;28;20122;-75
2023/08/03 01:44:49;;;;;;;10.48;2.05;;;;;;;16.30;100.00;99255.97;5091445;28;20042;-76
2023/08/03 01:47:35;;;;;;;8.82;1.70;;;;;;;16.29;100.00;99251.53;5089119;28;20028;-76
2023/08/03 01:50:21;;;;;;;12.18;2.10;;;;;;;16.27;100.00;99259.53;5102707;28;20035;-76
2023/08/03 01:53:07;;;;;;;13.68;2.42;;;;;;;16.24;100.00;99256.59;5098560;28;20591;-77
2023/08/03 01:55:52;;;;;;;11.38;1.73;;;;;;;16.25;100.00;99259.06;5083193;28;20031;-76
2023/08/03 01:58:38;;;;;;;6.43;1.60;;;;;;;16.22;100.00;99258.97;5075206;28;20035;-76
2023/08/03 02:01:24;;;;;;;11.05;2.25;;;;;;;16.21;100.00;99265.75;5083768;28;20038;-76
2023/08/03 02:04:10;;;;;;;13.85;3.42;;;;;;;16.22;100.00;99264.59;5083292;28;20185;-76
2023/08/03 02:06:56;;;;;;;7.95;1.77;;;;;;;16.21;100.00;99265.75;5082647;28;20122;-76
2023/08/03 02:09:42;;;;;;;9.35;2.15;;;;;;;16.21;100.00;99274.94;5051445;28;20039;-76
2023/08/03 02:12:28;;;;;;;11.60;1.80;;;;;;;16.23;100.00;99274.59;5052972;28;20059;-76
2023/08/03 02:15:14;;;;;;;8.52;1.95;;;;;;;16.21;100.00;99274.13;5080500;28;20070;-76
2023/08/03 02:17:59;;;;;;;8.68;1.65;;;;;;;16.19;100.00;99276.50;5054602;28;20048;-76
2023/08/03 02:20:45;;;;;;;9.15;2.08;;;;;;;16.17;100.00;99285.25;5080714;28;20028;-76
2023/08/03 02:23:31;;;;;;;17.38;2.67;;;;;;;16.19;100.00;99274.53;5069072;28;20031;-76
2023/08/03 02:26:17;;;;;;;10.55;2.10;;;;;;;16.11;100.00;99269.91;5066472;28;20042;-76
2023/08/03 02:29:02;;;;;;;9.43;1.90;;;;;;;16.14;100.00;99271.19;5061903;28;20034;-76
2023/08/03 02:31:48;;;;;;;15.80;2.88;;;;;;;16.11;100.00;99278.31;5072701;28;20118;-76
2023/08/03 02:34:34;;;;;;;8.30;2.45;;;;;;;16.13;100.00;99272.34;5066650;28;20125;-76
2023/08/03 02:37:20;;;;;;;10.30;2.30;;;;;;;16.08;100.00;99270.63;5050957;28;20503;-76
2023/08/03 02:40:08;;;;;;;11.93;2.40;;;;;;;16.09;100.00;99275.06;5073072;28;20031;-76
2023/08/03 02:42:54;;;;;;;11.80;2.35;;;;;;;16.08;100.00;99271.44;5077629;28;20032;-76
2023/08/03 02:45:40;;;;;;;12.57;2.22;;;;;;;16.06;100.00;99278.56;5080526;28;20080;-76
2023/08/03 02:48:25;;;;;;;12.88;2.65;;;;;;;16.08;100.00;99285.44;5058788;28;20399;-76
2023/08/03 02:51:11;;;;;;;14.80;2.78;;;;;;;16.05;100.00;99285.38;5073881;28;20085;-76
2023/08/03 02:53:57;;;;;;;11.95;2.60;;;;;;;16.05;100.00;99279.75;5080813;28;20116;-77
2023/08/03 02:56:43;;;;;;;14.07;2.80;;;;;;;16.00;100.00;99291.22;5076003;28;20420;-76
2023/08/03 02:59:28;;;;;;;9.63;2.30;;;;;;;16.02;100.00;99288.88;5090635;28;20547;-76
2023/08/03 03:02:14;;;;;;;11.65;2.78;;;;;;;15.99;100.00;99282.03;5056577;28;20043;-76
2023/08/03 03:05:00;;;;;;;12.13;2.63;;;;;;;15.99;100.00;99286.78;5066505;28;20031;-76
2023/08/03 03:07:46;;;;;;;14.00;2.35;;;;;;;15.97;100.00;99289.97;5073732;28;20035;-76
2023/08/03 03:10:31;;;;;;;9.80;2.08;;;;;;;15.98;100.00;99290.75;5056330;28;20032;-76
2023/08/03 03:13:17;;;;;;;9.77;2.50;;;;;;;15.97;100.00;99294.75;5065170;28;20468;-77
2023/08/03 03:16:03;;;;;;;13.20;2.45;;;;;;;15.96;100.00;99293.09;5056421;28;20056;-77
2023/08/03 03:18:49;;;;;;;10.23;2.50;;;;;;;15.95;100.00;99291.50;5082772;28;20031;-77
2023/08/03 03:21:35;;;;;;;15.25;2.60;;;;;;;15.93;100.00;99302.22;5076920;28;20423;-77
2023/08/03 03:24:20;;;;;;;12.55;2.70;;;;;;;15.92;100.00;99301.41;5036371;28;20058;-77
2023/08/03 03:27:06;;;;;;;12.00;2.28;;;;;;;15.89;100.00;99304.13;5078303;28;20036;-77
2023/08/03 03:29:52;;;;;;;12.50;3.13;;;;;;;15.86;100.00;99309.28;5067959;28;20042;-77
2023/08/03 03:32:38;;;;;;;13.25;3.17;;;;;;;15.82;100.00;99307.53;5079637;28;20040;-77
2023/08/03 03:35:24;;;;;;;12.40;2.60;;;;;;;15.84;100.00;99308.81;5058670;28;20495;-76
2023/08/03 03:38:09;;;;;;;10.32;2.70;;;;;;;15.85;100.00;99309.59;5053861;28;20135;-76
2023/08/03 03:40:55;;;;;;;12.60;2.67;;;;;;;15.81;100.00;99312.31;5091526;28;20053;-77
2023/08/03 03:43:41;;;;;;;11.82;2.55;;;;;;;15.83;100.00;99311.97;5076290;28;20036;-76
2023/08/03 03:46:27;;;;;;;9.88;2.20;;;;;;;15.79;100.00;99311.84;5053663;28;20029;-77
2023/08/03 03:49:12;;;;;;;15.10;2.35;;;;;;;15.81;100.00;99314.31;5070939;28;20028;-77
2023/08/03 03:51:58;;;;;;;12.23;2.13;;;;;;;15.74;100.00;99320.53;5078700;28;20024;-77
2023/08/03 03:54:44;;;;;;;9.35;2.63;;;;;;;15.78;100.00;99315.84;5068682;28;20058;-77
2023/08/03 03:57:30;;;;;;;12.88;2.58;;;;;;;15.77;100.00;99311.44;5095472;28;20373;-76
2023/08/03 04:00:15;;;;;;;15.00;2.25;;;;;;;15.75;100.00;99315.75;5064250;28;20028;-76
2023/08/03 04:03:01;;;;;;;13.10;2.75;;;;;;;15.74;100.00;99325.31;5073166;28;20053;-76
2023/08/03 04:05:47;;;;;;;17.25;2.78;;;;;;;15.74;100.00;99326.13;5071599;28;20113;-76
2023/08/03 04:08:33;;;;;;;11.98;2.42;;;;;;;15.72;100.00;99322.88;5056526;28;20040;-76
2023/08/03 04:11:19;;;;;;;14.00;2.83;;;;;;;15.68;100.00;99321.94;5053144;28;20081;-76
2023/08/03 04:14:05;;;;;;;10.68;2.35;;;;;;;15.72;100.00;99336.06;5078857;28;20028;-76
2023/08/03 04:16:50;;;;;;;11.88;2.47;;;;;;;15.67;100.00;99330.69;5084854;28;20043;-77
2023/08/03 04:19:36;;;;;;;10.27;2.53;;;;;;;15.67;100.00;99325.91;5064693;28;20032;-77
2023/08/03 04:22:22;;;;;;;11.00;2.65;;;;;;;15.65;100.00;99328.22;5076927;28;20059;-76
2023/08/03 04:25:08;;;;;;;13.07;2.72;;;;;;;15.64;100.00;99340.59;5056333;28;20404;-77
2023/08/03 04:27:53;;;;;;;12.70;2.58;;;;;;;15.61;100.00;99338.53;5054528;28;20169;-77
2023/08/03 04:30:39;;;;;;;12.38;2.17;;;;;;;15.63;100.00;99334.19;5071229;28;20126;-77
2023/08/03 04:33:25;;;;;;;11.40;2.58;;;;;;;15.62;100.00;99334.53;5055290;28;20033;-77
2023/08/03 04:36:11;;;;;;;10.18;2.47;;;;;;;15.60;100.00;99345.28;5056859;28;20033;-76
2023/08/03 04:38:57;;;;;;;13.23;2.80;;;;;;;15.62;100.00;99345.75;5034510;28;20036;-77
2023/08/03 04:41:43;;;;;;;10.18;2.35;;;;;;;15.62;100.00;99342.94;5091528;28;20039;-76
2023/08/03 04:44:28;;;;;;;13.45;2.22;;;;;;;15.59;100.00;99352.06;5080511;28;20059;-77
2023/08/03 04:47:14;;;;;;;12.07;2.38;;;;;;;15.59;100.00;99340.84;5091024;28;20101;-76
2023/08/03 04:50:00;;;;;;;11.07;2.53;;;;;;;15.60;100.00;99345.28;5059804;28;20034;-76
2023/08/03 04:52:46;;;;;;;9.40;2.15;;;;;;;15.61;100.00;99350.53;5091318;28;20065;-77
2023/08/03 04:55:31;;;;;;;11.50;2.38;;;;;;;15.64;100.00;99343.41;5081375;28;20038;-76
2023/08/03 04:58:17;;;;;;;9.25;2.08;;;;;;;15.63;100.00;99353.78;5039307;28;20060;-77
2023/08/03 05:01:03;;;;;;;8.30;1.58;;;;;;;15.60;100.00;99353.66;5096423;28;20734;-77
2023/08/03 05:03:49;;;;;;;9.82;1.70;;;;;;;15.64;100.00;99351.81;5084213;28;20034;-77
2023/08/03 05:06:35;;;;;;;8.63;1.92;;;;;;;15.62;100.00;99360.53;5055852;28;20506;-77
2023/08/03 05:09:20;;;;;;;10.35;2.20;;;;;;;15.61;100.00;99350.53;5074469;28;20500;-76
2023/08/03 05:12:07;;;;;;;8.40;1.65;;;;;;;15.59;100.00;99354.84;5089781;28;20081;-77
2023/08/03 05:14:52;;;;;;;8.05;2.15;;;;;;;15.59;100.00;99360.44;5064906;28;20020;-77
2023/08/03 05:17:38;;;;;;;6.82;1.85;;;;;;;15.61;100.00;99355.31;5082183;28;20055;-77
2023/08/03 05:20:24;;;;;;;8.40;1.40;;;;;;;15.60;100.00;99357.31;5084769;28;20046;-77
2023/08/03 05:23:12;;;;;;;7.32;1.98;;;;;;;15.61;100.00;99366.50;5077307;28;20032;-77
2023/08/03 05:25:59;;;;;;;7.30;1.70;;;;;;;15.63;100.00;99364.19;5078786;28;20052;-77
2023/08/03 05:28:44;;;;;;;9.25;1.90;;;;;;;15.65;100.00;99367.41;5075515;28;20039;-77
2023/08/03 05:31:30;;;;;;;8.43;2.00;;;;;;;15.64;100.00;99365.78;5077010;28;20089;-77
2023/08/03 05:34:16;;;;;;;8.75;1.85;;;;;;;15.64;100.00;99363.00;5091088;28;20038;-77
2023/08/03 05:37:02;;;;;;;6.97;1.58;;;;;;;15.64;100.00;99363.81;5076688;28;20108;-76
2023/08/03 05:39:48;;;;;;;9.80;2.10;;;;;;;15.64;100.00;99355.41;5090707;28;20039;-76
2023/08/03 05:42:38;;;;;;;7.43;1.60;;;;;;;15.62;100.00;99357.75;5076051;28;20028;-77
2023/08/03 05:45:34;;;;;;;7.10;1.75;;;;;;;15.65;100.00;99361.81;5104175;28;20070;-76
2023/08/03 05:48:20;;;;;;;10.30;1.90;;;;;;;15.66;100.00;99374.66;5103603;28;20058;-76
2023/08/03 05:51:06;;;;;;;7.53;2.05;;;;;;;15.64;100.00;99369.41;5095165;28;20035;-75
2023/08/03 05:53:55;;;;;;;7.53;1.55;;;;;;;15.68;100.00;99375.13;5050790;28;20115;-75
2023/08/03 05:56:42;;;;;;;5.53;1.23;;;;;;;15.66;100.00;99380.25;5065128;28;20031;-75
2023/08/03 05:59:27;;;;;;;9.30;1.80;;;;;;;15.68;100.00;99374.28;5073827;28;20040;-75
2023/08/03 06:02:20;;;;;;;7.03;1.73;;;;;;;15.72;100.00;99378.06;5064149;28;20029;-76
2023/08/03 06:05:06;;;;;;;7.88;1.42;;;;;;;15.72;100.00;99383.66;5041166;28;20060;-76
2023/08/03 06:07:52;;;;;;;6.40;1.63;;;;;;;15.74;100.00;99387.72;5070847;28;20115;-76
2023/08/03 06:10:39;;;;;;;7.93;1.67;;;;;;;15.74;100.00;99384.09;5064472;28;20420;-76
2023/08/03 06:13:33;;;;;;;9.15;1.55;;;;;;;15.74;100.00;99382.13;5056561;28;20056;-76
2023/08/03 06:16:19;;;;;;;7.20;1.38;;;;;;;15.77;100.00;99392.59;5065302;28;20052;-76
2023/08/03 06:19:05;;;;;;;12.50;1.90;;;;;;;15.77;100.00;99391.78;5075462;28;20471;-76
2023/08/03 06:21:51;;;;;;;8.60;1.48;;;;;;;15.78;100.00;99393.41;5059428;28;20036;-76
2023/08/03 06:24:36;;;;;;;7.32;1.58;;;;;;;15.77;100.00;99398.19;5054525;28;20028;-76
2023/08/03 06:27:22;;;;;;;8.05;1.90;;;;;;;15.78;100.00;99394.22;5061454;28;20031;-76
2023/08/03 06:30:11;;;;;;;5.93;1.30;;;;;;;15.81;100.00;99398.28;5069401;28;20082;-76
2023/08/03 06:32:57;;;;;;;7.80;1.58;;;;;;;15.80;100.00;99403.09;5091013;28;20543;-76
2023/08/03 06:35:47;;;;;;;5.43;1.52;;;;;;;15.82;100.00;99400.75;5064962;28;20034;-76
2023/08/03 06:38:32;;;;;;;7.95;1.85;;;;;;;15.82;100.00;99411.94;5059662;28;20067;-76
2023/08/03 06:41:18;;;;;;;9.15;1.80;;;;;;;15.85;100.00;99416.84;5056533;28;20036;-76
2023/08/03 06:44:04;;;;;;;12.27;1.80;;;;;;;15.89;100.00;99424.53;5059234;28;20029;-75
2023/08/03 06:46:51;;;;;;;5.45;1.25;;;;;;;15.89;100.00;99422.53;5067681;28;20048;-75
2023/08/03 06:49:37;;;;;;;5.53;1.55;;;;;;;15.90;100.00;99420.53;5083334;28;20027;-76
2023/08/03 06:52:22;;;;;;;9.30;1.98;;;;;;;15.91;100.00;99410.97;5049770;28;20021;-76
2023/08/03 06:55:08;;;;;;;7.68;1.50;;;;;;;15.92;100.00;99427.41;5053032;28;20070;-76
2023/08/03 06:57:54;;;;;;;9.10;1.80;;;;;;;15.96;100.00;99424.72;5097578;28;20070;-76
2023/08/03 07:00:41;;;;;;;7.57;1.65;;;;;;;15.96;100.00;99435.91;5082857;28;20122;-76
2023/08/03 07:03:27;;;;;;;8.55;1.77;;;;;;;15.95;100.00;99435.09;5106844;28;20039;-76
2023/08/03 07:06:12;;;;;;;6.38;1.73;;;;;;;15.98;100.00;99439.16;5099532;28;20103;-76
2023/08/03 07:08:58;;;;;;;9.18;1.80;;;;;;;16.01;100.00;99444.06;5096278;28;20051;-76
2023/08/03 07:11:44;;;;;;;7.78;1.60;;;;;;;16.04;100.00;99452.56;5086616;28;20043;-76
2023/08/03 07:14:33;;;;;;;11.50;2.00;;;;;;;16.04;100.00;99451.75;5041634;28;20029;-76
2023/08/03 07:17:18;;;;;;;11.48;2.42;;;;;;;16.07;100.00;99459.44;5062417;28;20116;-76
2023/08/03 07:20:07;;;;;;;6.95;1.85;;;;;;;16.08;100.00;99458.28;5079510;28;20070;-76
2023/08/03 07:22:53;;;;;;;7.25;2.15;;;;;;;16.07;100.00;99460.28;5051320;28;20084;-76
2023/08/03 07:25:40;;;;;;;8.07;1.88;;;;;;;16.10;100.00;99467.13;5050532;28;20143;-76
2023/08/03 07:28:25;;;;;;;5.85;1.55;;;;;;;16.13;100.00;99469.22;5082033;28;20066;-76
2023/08/03 07:31:14;;;;;;;8.50;1.90;;;;;;;16.16;100.00;99462.91;5066940;28;20493;-77
2023/08/03 07:34:00;;;;;;;11.40;2.08;;;;;;;16.17;100.00;99470.13;5074860;28;20373;-76
2023/08/03 07:36:46;;;;;;;10.02;2.67;;;;;;;16.19;100.00;99472.59;5071638;28;20480;-76
2023/08/03 07:39:32;;;;;;;7.28;2.25;;;;;;;16.23;100.00;99476.28;5056318;28;20075;-76
2023/08/03 07:42:18;;;;;;;9.43;2.15;;;;;;;16.23;100.00;99479.91;5050091;28;20111;-76
2023/08/03 07:45:04;;;;;;;10.80;2.22;;;;;;;16.25;100.00;99480.38;5085433;28;20046;-76
2023/08/03 07:47:49;;;;;;;9.93;3.05;;;;;;;16.27;100.00;99483.63;5067562;28;20036;-77
2023/08/03 07:50:35;;;;;;;9.60;2.90;;;;;;;16.30;100.00;99491.31;5063208;28;20093;-77
2023/08/03 07:53:21;;;;;;;9.65;2.80;;;;;;;16.33;100.00;99484.19;5086817;28;20066;-77
2023/08/03 07:56:17;;;;;;;11.30;3.00;;;;;;;16.36;100.00;99488.28;5069934;28;20035;-76
2023/08/03 07:59:04;;;;;;;6.68;2.13;;;;;;;16.38;100.00;99492.34;5075582;28;20553;-76
2023/08/03 08:01:50;;;;;;;8.65;2.60;;;;;;;16.40;100.00;99487.16;5085192;28;20059;-76
2023/08/03 08:04:36;;;;;;;9.23;2.67;;;;;;;16.44;100.00;99498.50;5074520;28;20031;-77
2023/08/03 08:07:22;;;;;;;9.23;2.35;;;;;;;16.48;100.00;99502.19;5075536;28;20040;-76
2023/08/03 08:10:11;;;;;;;8.77;2.03;;;;;;;16.50;100.00;99502.66;5077600;28;20032;-76
2023/08/03 08:12:56;;;;;;;7.63;2.20;;;;;;;16.54;100.00;99497.97;5073116;28;20035;-76
2023/08/03 08:15:42;;;;;;;7.15;1.88;;;;;;;16.58;100.00;99504.50;5072638;28;20033;-76
2023/08/03 08:18:29;;;;;;;8.60;2.20;;;;;;;16.60;100.00;99499.31;5057942;28;20037;-76
2023/08/03 08:21:14;;;;;;;6.93;1.65;;;;;;;16.64;100.00;99508.66;5050686;28;20036;-76
2023/08/03 08:24:00;;;;;;;9.07;2.03;;;;;;;16.69;100.00;99511.19;5077730;28;20072;-76
2023/08/03 08:26:46;;;;;;;6.78;1.67;;;;;;;16.76;100.00;99504.97;5068536;28;20059;-76
2023/08/03 08:29:32;;;;;;;5.40;1.30;;;;;;;16.79;100.00;99509.88;5068554;28;20449;-76
2023/08/03 08:32:18;;;;;;;5.10;1.52;;;;;;;16.85;100.00;99507.63;5063423;28;20502;-76
2023/08/03 08:35:04;;;;;;;7.88;1.60;;;;;;;16.90;100.00;99510.97;5074887;28;20033;-76
2023/08/03 08:37:51;;;;;;;3.88;1.17;;;;;;;16.93;100.00;99509.44;5074035;28;20059;-76
2023/08/03 08:40:37;;;;;;;5.13;1.40;;;;;;;16.98;100.00;99509.16;5053493;28;20515;-76
2023/08/03 08:43:23;;;;;;;4.28;1.02;;;;;;;17.01;100.00;99518.84;5063595;28;20059;-76
2023/08/03 08:46:09;;;;;;;8.93;1.60;;;;;;;17.04;100.00;99516.13;5058497;28;20032;-76
2023/08/03 08:48:55;;;;;;;6.85;1.73;;;;;;;17.08;100.00;99525.47;5062535;28;20394;-76
2023/08/03 08:51:42;;;;;;;4.30;1.00;;;;;;;17.10;100.00;99525.91;5058293;28;20125;-76
2023/08/03 08:54:33;;;;;;;5.82;1.30;;;;;;;17.12;100.00;99531.97;5079776;28;20033;-76
2023/08/03 08:57:19;;;;;;;5.13;1.50;;;;;;;17.13;100.00;99530.81;5076977;28;20044;-76
2023/08/03 09:00:06;;;;;;;4.22;1.38;;;;;;;17.11;100.00;99533.16;5059870;28;20038;-77
2023/08/03 09:03:00;;;;;;;7.30;1.60;;;;;;;17.13;100.00;99541.19;5063563;28;20042;-76
2023/08/03 09:05:58;;;;;;;3.13;1.17;;;;;;;17.12;100.00;99531.97;5078407;28;20085;-76
2023/08/03 09:08:51;;;;;;;4.30;1.30;;;;;;;17.10;100.00;99551.16;5077921;28;20507;-77
2023/08/03 09:11:41;;;;;;;4.55;1.10;;;;;;;17.10;100.00;99536.31;5079298;28;20032;-76
2023/08/03 09:14:26;;;;;;;4.40;1.20;;;;;;;17.10;100.00;99550.34;5055881;28;20021;-77
2023/08/03 09:17:16;;;;;;;2.70;1.17;;;;;;;17.09;100.00;99557.13;5054709;28;20052;-76
2023/08/03 09:20:04;;;;;;;3.47;1.15;;;;;;;17.08;100.00;99559.13;5080871;28;20032;-76
2023/08/03 09:22:50;;;;;;;3.90;1.35;;;;;;;17.09;100.00;99557.13;5052402;28;20035;-76
2023/08/03 09:25:37;;;;;;;5.00;1.35;;;;;;;17.08;100.00;99567.53;5076964;28;20031;-76
2023/08/03 09:28:39;;;;;;;7.00;1.42;;;;;;;17.09;100.00;99557.94;5072530;28;20040;-76
2023/08/03 09:31:25;;;;;;;2.95;1.10;;;;;;;17.09;100.00;99562.75;5069434;28;20045;-76
2023/08/03 09:34:11;;;;;;;3.60;1.10;;;;;;;17.13;100.00;99569.25;5081416;28;20036;-76
2023/08/03 09:36:56;;;;;;;5.13;1.55;;;;;;;17.14;100.00;99573.72;5061366;28;20040;-76
2023/08/03 09:39:52;;;;;;;4.35;1.38;;;;;;;17.17;100.00;99579.41;5057032;28;20037;-76
2023/08/03 09:42:39;;;;;;;5.43;1.58;;;;;;;17.18;100.00;99572.59;5059140;28;20073;-76
2023/08/03 09:45:25;;;;;;;5.05;1.38;;;;;;;17.22;100.00;99586.75;5051625;28;20035;-76
2023/08/03 09:48:11;;;;;;;3.83;1.95;;;;;;;17.21;100.00;99610.34;5061085;28;20031;-76
2023/08/03 09:50:58;;;;;;;3.15;1.45;;;;;;;17.24;100.00;99614.44;5092143;28;20036;-77
2023/08/03 09:53:44;;;;;;;6.15;1.80;;;;;;;17.23;100.00;99621.22;5069194;28;20035;-76
2023/08/03 09:56:31;;;;;;;6.30;1.63;;;;;;;17.23;100.00;99630.44;5074854;28;20031;-76
2023/08/03 09:59:19;;;;;;;5.38;1.55;;;;;;;17.27;100.00;99634.16;5072842;28;20036;-76
2023/08/03 10:02:07;;;;;;;2.95;1.27;;;;;;;17.34;100.00;99633.53;5059326;28;20322;-76
2023/08/03 10:05:01;;;;;;;3.25;1.30;;;;;;;17.33;100.00;99635.53;5068564;28;20034;-77
2023/08/03 10:08:24;;;;;;;5.93;1.60;;;;;;;17.40;100.00;99634.91;5052038;28;20037;-76
2023/08/03 10:11:10;;;;;;;5.55;1.35;;;;;;;17.42;100.00;99641.78;5084544;28;20112;-76
2023/08/03 10:13:56;;;;;;;6.25;1.50;;;;;;;17.46;100.00;99641.88;5054275;28;20436;-76
2023/08/03 10:16:42;;;;;;;2.53;1.45;;;;;;;17.48;100.00;99644.31;5057487;28;20040;-76
2023/08/03 10:19:28;;;;;;;4.57;1.58;;;;;;;17.50;100.00;99645.59;5062414;28;20061;-77
2023/08/03 10:22:14;;;;;;;4.03;1.42;;;;;;;17.51;100.00;99647.22;5052961;28;20115;-77
2023/08/03 10:25:18;;;;;;;4.40;1.40;;;;;;;17.56;100.00;99646.94;5055889;28;20072;-77
2023/08/03 10:28:13;;;;;;;2.40;1.13;;;;;;;17.56;100.00;99655.38;5079848;28;20411;-76
2023/08/03 10:31:04;;;;;;;2.63;1.00;;;;;;;17.57;100.00;99657.00;5042487;28;20037;-77
2023/08/03 10:33:49;;;;;;;5.00;1.20;;;;;;;17.56;100.00;99661.00;5090770;28;20082;-77
2023/08/03 10:36:38;;;;;;;8.15;1.50;;;;;;;17.57;100.00;99668.22;5084674;28;20091;-77
2023/08/03 10:39:49;;;;;;;5.45;1.63;;;;;;;17.60;100.00;99672.31;5069696;28;20040;-76
2023/08/03 10:42:35;;;;;;;4.40;1.25;;;;;;;17.60;100.00;99675.91;5086582;28;20081;-76
2023/08/03 10:45:21;;;;;;;3.97;1.65;;;;;;;17.63;100.00;99678.03;5052261;28;20066;-76
2023/08/03 10:48:31;;;;;;;3.78;1.15;;;;;;;17.68;100.00;99673.31;5083752;28;20048;-76
2023/08/03 10:51:22;;;;;;;4.55;1.23;;;;;;;17.72;100.00;99679.81;5089493;28;20066;-75
2023/08/03 10:54:08;;;;;;;3.20;1.33;;;;;;;17.77;100.00;99685.97;5054782;28;20062;-74
2023/08/03 10:57:04;;;;;;;4.97;1.63;;;;;;;17.82;100.00;99687.72;5074182;28;20028;-74
2023/08/03 10:59:55;;;;;;;2.47;1.20;;;;;;;17.87;100.00;99681.84;5088813;28;20487;-75
2023/08/03 11:02:42;;;;;;;4.82;1.65;;;;;;;17.93;100.00;99694.44;5070552;28;20488;-75
2023/08/03 11:05:28;;;;;;;4.03;1.30;;;;;;;17.97;100.00;99686.09;5089064;28;20032;-75
2023/08/03 11:08:15;;;;;;;4.70;1.63;;;;;;;18.01;100.00;99690.63;5066582;28;20051;-75
2023/08/03 11:11:01;;;;;;;4.60;1.67;;;;;;;18.08;100.00;99693.63;5073538;28;20039;-75
2023/08/03 11:13:47;;;;;;;4.50;1.55;;;;;;;18.13;100.00;99709.38;5064554;28;20034;-75
2023/08/03 11:16:33;;;;;;;2.63;1.30;;;;;;;18.16;100.00;99702.19;5065871;28;20043;-75
2023/08/03 11:19:21;;;;;;;4.13;1.60;;;;;;;18.20;100.00;99700.31;5075363;28;20027;-75
2023/08/03 11:22:08;;;;;;;4.32;1.50;;;;;;;18.25;100.00;99709.28;5062598;28;20032;-75
2023/08/03 11:24:55;;;;;;;5.30;1.38;;;;;;;18.27;100.00;99712.50;5077924;28;20036;-75
2023/08/03 11:27:41;;;;;;;4.68;1.40;;;;;;;18.29;100.00;99721.41;5050885;28;20028;-75
2023/08/03 11:30:27;;;;;;;5.90;1.33;;;;;;;18.26;100.00;99719.31;5075544;28;20502;-76
2023/08/03 11:33:13;;;;;;;4.70;1.20;;;;;;;18.25;100.00;99728.13;5090131;28;20395;-75
2023/08/03 11:35:59;;;;;;;4.50;1.65;;;;;;;18.29;100.00;99737.47;5068364;28;20039;-75
2023/08/03 11:38:45;;;;;;;5.57;1.67;;;;;;;18.29;100.00;99726.22;5075080;28;20039;-75
2023/08/03 11:41:31;;;;;;;6.50;1.63;;;;;;;18.34;100.00;99733.56;5070975;28;20036;-75
2023/08/03 11:44:22;;;;;;;7.05;1.50;;;;;;;18.37;100.00;99738.44;5071659;28;20032;-75
2023/08/03 11:47:08;;;;;;;5.30;1.55;;;;;;;18.39;100.00;99734.09;5061471;28;20036;-75
2023/08/03 11:49:55;;;;;;;3.75;1.63;;;;;;;18.49;100.00;99738.31;5082609;28;20123;-75
2023/08/03 11:52:41;;;;;;;4.72;1.65;;;;;;;18.51;100.00;99739.59;5063127;28;20060;-75
2023/08/03 11:55:38;;;;;;;3.05;1.52;;;;;;;18.58;100.00;99740.94;5093228;28;20039;-75
2023/08/03 11:58:24;;;;;;;3.55;1.58;;;;;;;18.65;100.00;99743.91;5064569;28;20031;-75
2023/08/03 12:01:10;;;;;;;5.00;1.58;;;;;;;18.69;100.00;99747.59;5074537;28;20035;-75
2023/08/03 12:04:07;;;;;;;6.32;1.95;;;;;;;18.77;100.00;99752.25;5054107;28;20036;-75
2023/08/03 12:06:54;;;;;;;4.88;1.52;;;;;;;18.79;100.00;99751.88;5056742;28;20027;-75
2023/08/03 12:09:40;;;;;;;5.55;1.40;;;;;;;18.83;100.00;99744.34;5063864;28;20078;-75
2023/08/03 12:12:26;;;;;;;6.13;1.90;;;;;;;18.88;100.00;99750.47;5069390;28;20028;-75
2023/08/03 12:15:12;;;;;;;4.63;1.48;;;;;;;18.90;100.00;99745.31;5059865;28;20105;-75
2023/08/03 12:17:57;;;;;;;5.70;1.67;;;;;;;18.94;100.00;99753.81;5061198;28;20400;-75
2023/08/03 12:20:43;;;;;;;4.05;1.52;;;;;;;18.98;100.00;99755.53;5071272;28;20479;-75
2023/08/03 12:23:29;;;;;;;3.60;1.38;;;;;;;19.03;100.00;99759.22;5064399;28;20446;-75
2023/08/03 12:26:15;;;;;;;5.57;1.60;;;;;;;19.06;100.00;99753.69;5075076;28;20032;-75
2023/08/03 12:29:01;;;;;;;5.10;1.67;;;;;;;19.09;100.00;99758.56;5101703;28;20028;-75
2023/08/03 12:31:47;;;;;;;5.45;1.73;;;;;;;19.16;100.00;99769.16;5086790;28;20088;-75
2023/08/03 12:34:33;;;;;;;4.97;1.65;;;;;;;19.17;100.00;99765.19;5101670;28;20104;-75
2023/08/03 12:37:19;;;;;;;7.72;1.83;;;;;;;19.19;100.00;99768.41;5088266;28;20503;-75
2023/08/03 12:40:05;;;;;;;5.90;1.70;;;;;;;19.21;100.00;99771.69;5102167;28;20491;-75
2023/08/03 12:42:50;;;;;;;6.25;2.30;;;;;;;19.20;100.00;99775.69;5073396;28;20456;-76
2023/08/03 12:45:37;;;;;;;4.38;1.60;;;;;;;19.19;100.00;99779.69;5101576;28;20032;-75
2023/08/03 12:48:23;;;;;;;4.55;1.83;;;;;;;19.17;100.00;99782.06;5076518;28;20400;-75
2023/08/03 12:51:09;;;;;;;5.03;2.25;;;;;;;19.17;100.00;99790.50;5081280;28;20515;-75
2023/08/03 12:53:55;;;;;;;6.40;2.30;;;;;;;19.14;100.00;99794.06;5064450;28;20488;-75